sensor_id;sensor_type;location;lat;lon;timestamp;temperature;humidity
64654;DHT22;51065;48.884;12.598;2023-07-20T00:02:20;19.20;99.90
64654;DHT22;51065;48.884;12.598;2023-07-20T00:04:46;19.20;99.90
64654;DHT22;51065;48.884;12.598;2023-07-20T00:07:11;19.20;99.90
64654;DHT22;51065;48.884;12.598;2023-07-20T00:09:37;19.10;99.90
64654;DHT22;51065;48.884;12.598;2023-07-20T00:12:03;19.20;99.90
64654;DHT22;51065;48.884;12.598;2023-07-20T00:14:28;19.20;99.90
64654;DHT22;51065;48.884;12.598;2023-07-20T00:16:55;19.20;99.90
64654;DHT22;51065;48.884;12.598;2023-07-20T00:19:27;19.20;99.90
64654;DHT22;51065;48.884;12.598;2023-07-20T00:21:53;19.20;99.90
64654;DHT22;51065;48.884;12.598;2023-07-20T00:24:20;19.20;99.90
64654;DHT22;51065;48.884;12.598;2023-07-20T00:26:45;19.20;99.90
64654;DHT22;51065;48.884;12.598;2023-07-20T00:29:11;19.20;99.90
64654;DHT22;51065;48.884;12.598;2023-07-20T00:31:37;19.20;99.90
64654;DHT22;51065;48.884;12.598;2023-07-20T00:34:05;19.10;99.90
64654;DHT22;51065;48.884;12.598;2023-07-20T00:36:32;19.10;99.90
64654;DHT22;51065;48.884;12.598;2023-07-20T00:38:57;19.00;99.90
64654;DHT22;51065;48.884;12.598;2023-07-20T00:41:23;19.00;99.90
64654;DHT22;51065;48.884;12.598;2023-07-20T00:43:48;19.00;99.90
64654;DHT22;51065;48.884;12.598;2023-07-20T00:46:14;18.90;99.90
64654;DHT22;51065;48.884;12.598;2023-07-20T00:48:40;19.00;99.90
64654;DHT22;51065;48.884;12.598;2023-07-20T00:51:07;18.90;99.90
64654;DHT22;51065;48.884;12.598;2023-07-20T00:53:33;18.90;99.90
64654;DHT22;51065;48.884;12.598;2023-07-20T00:55:58;18.90;99.90
64654;DHT22;51065;48.884;12.598;2023-07-20T00:58:24;18.90;99.90
64654;DHT22;51065;48.884;12.598;2023-07-20T01:00:50;18.80;99.90
64654;DHT22;51065;48.884;12.598;2023-07-20T01:03:16;18.80;99.90
64654;DHT22;51065;48.884;12.598;2023-07-20T01:08:26;18.70;99.90
64654;DHT22;51065;48.884;12.598;2023-07-20T01:10:59;18.70;99.90
64654;DHT22;51065;48.884;12.598;2023-07-20T01:13:29;18.70;99.90
64654;DHT22;51065;48.884;12.598;2023-07-20T01:16:01;18.70;99.90
64654;DHT22;51065;48.884;12.598;2023-07-20T01:18:26;18.60;99.90
64654;DHT22;51065;48.884;12.598;2023-07-20T01:20:58;18.50;99.90
64654;DHT22;51065;48.884;12.598;2023-07-20T01:23:50;18.50;99.90
64654;DHT22;51065;48.884;12.598;2023-07-20T01:32:02;17.90;99.90
64654;DHT22;51065;48.884;12.598;2023-07-20T01:34:29;17.90;99.90
64654;DHT22;51065;48.884;12.598;2023-07-20T01:36:55;17.80;99.90
64654;DHT22;51065;48.884;12.598;2023-07-20T01:39:22;17.80;99.90
64654;DHT22;51065;48.884;12.598;2023-07-20T01:41:48;17.80;99.90
64654;DHT22;51065;48.884;12.598;2023-07-20T01:44:14;17.70;99.90
64654;DHT22;51065;48.884;12.598;2023-07-20T01:46:40;17.70;99.90
64654;DHT22;51065;48.884;12.598;2023-07-20T01:49:06;17.70;99.90
64654;DHT22;51065;48.884;12.598;2023-07-20T01:51:31;17.70;99.90
64654;DHT22;51065;48.884;12.598;2023-07-20T01:53:57;17.60;99.90
64654;DHT22;51065;48.884;12.598;2023-07-20T01:56:23;17.60;99.90
64654;DHT22;51065;48.884;12.598;2023-07-20T01:58:48;17.50;99.90
64654;DHT22;51065;48.884;12.598;2023-07-20T02:01:14;17.60;99.90
64654;DHT22;51065;48.884;12.598;2023-07-20T02:03:39;17.50;99.90
64654;DHT22;51065;48.884;12.598;2023-07-20T02:06:05;17.60;99.90
64654;DHT22;51065;48.884;12.598;2023-07-20T02:08:30;17.60;99.90
64654;DHT22;51065;48.884;12.598;2023-07-20T02:10:56;17.70;99.90
64654;DHT22;51065;48.884;12.598;2023-07-20T02:13:22;17.70;99.90
64654;DHT22;51065;48.884;12.598;2023-07-20T02:15:47;17.70;99.90
64654;DHT22;51065;48.884;12.598;2023-07-20T02:18:15;17.70;99.90
64654;DHT22;51065;48.884;12.598;2023-07-20T02:20:41;17.80;99.90
64654;DHT22;51065;48.884;12.598;2023-07-20T02:23:06;17.80;99.90
64654;DHT22;51065;48.884;12.598;2023-07-20T02:25:32;17.80;99.90
64654;DHT22;51065;48.884;12.598;2023-07-20T02:27:58;17.80;99.90
64654;DHT22;51065;48.884;12.598;2023-07-20T02:30:24;17.70;99.90
64654;DHT22;51065;48.884;12.598;2023-07-20T02:32:49;17.60;99.90
64654;DHT22;51065;48.884;12.598;2023-07-20T02:35:16;17.50;99.90
64654;DHT22;51065;48.884;12.598;2023-07-20T02:37:41;17.40;99.90
64654;DHT22;51065;48.884;12.598;2023-07-20T02:40:08;17.30;99.90
64654;DHT22;51065;48.884;12.598;2023-07-20T02:42:34;17.20;99.90
64654;DHT22;51065;48.884;12.598;2023-07-20T02:45:02;17.20;99.90
64654;DHT22;51065;48.884;12.598;2023-07-20T02:47:29;17.20;99.90
64654;DHT22;51065;48.884;12.598;2023-07-20T02:49:54;17.10;99.90
64654;DHT22;51065;48.884;12.598;2023-07-20T02:52:20;17.10;99.90
64654;DHT22;51065;48.884;12.598;2023-07-20T02:54:45;17.10;99.90
64654;DHT22;51065;48.884;12.598;2023-07-20T02:57:11;17.00;99.90
64654;DHT22;51065;48.884;12.598;2023-07-20T02:59:36;17.00;99.90
64654;DHT22;51065;48.884;12.598;2023-07-20T03:02:02;17.00;99.90
64654;DHT22;51065;48.884;12.598;2023-07-20T03:04:28;17.00;99.90
64654;DHT22;51065;48.884;12.598;2023-07-20T03:06:54;17.00;99.90
64654;DHT22;51065;48.884;12.598;2023-07-20T03:09:20;17.00;99.90
64654;DHT22;51065;48.884;12.598;2023-07-20T03:11:45;17.00;99.90
64654;DHT22;51065;48.884;12.598;2023-07-20T03:14:11;17.00;99.90
64654;DHT22;51065;48.884;12.598;2023-07-20T03:16:37;17.00;99.90
64654;DHT22;51065;48.884;12.598;2023-07-20T03:19:02;16.90;99.90
64654;DHT22;51065;48.884;12.598;2023-07-20T03:21:29;17.00;99.90
64654;DHT22;51065;48.884;12.598;2023-07-20T03:23:54;17.00;99.90
64654;DHT22;51065;48.884;12.598;2023-07-20T03:26:20;17.00;99.90
64654;DHT22;51065;48.884;12.598;2023-07-20T03:28:46;17.00;99.90
64654;DHT22;51065;48.884;12.598;2023-07-20T03:31:11;17.00;99.90
64654;DHT22;51065;48.884;12.598;2023-07-20T03:33:37;17.10;99.90
64654;DHT22;51065;48.884;12.598;2023-07-20T03:36:03;17.00;99.90
64654;DHT22;51065;48.884;12.598;2023-07-20T03:38:28;17.00;99.90
64654;DHT22;51065;48.884;12.598;2023-07-20T03:40:55;17.00;99.90
64654;DHT22;51065;48.884;12.598;2023-07-20T03:43:25;17.00;99.90
64654;DHT22;51065;48.884;12.598;2023-07-20T03:45:51;17.00;99.90
64654;DHT22;51065;48.884;12.598;2023-07-20T03:48:20;17.00;99.90
64654;DHT22;51065;48.884;12.598;2023-07-20T03:50:48;17.10;99.90
64654;DHT22;51065;48.884;12.598;2023-07-20T03:53:14;17.10;99.90
64654;DHT22;51065;48.884;12.598;2023-07-20T03:55:50;17.10;99.90
64654;DHT22;51065;48.884;12.598;2023-07-20T03:58:16;17.20;99.90
64654;DHT22;51065;48.884;12.598;2023-07-20T04:00:49;17.30;99.90
64654;DHT22;51065;48.884;12.598;2023-07-20T04:03:16;17.40;99.90
64654;DHT22;51065;48.884;12.598;2023-07-20T04:05:42;17.50;99.90
64654;DHT22;51065;48.884;12.598;2023-07-20T04:08:08;17.50;99.90
64654;DHT22;51065;48.884;12.598;2023-07-20T04:10:34;17.60;99.90
64654;DHT22;51065;48.884;12.598;2023-07-20T04:13:00;17.70;99.90
64654;DHT22;51065;48.884;12.598;2023-07-20T04:15:26;17.80;99.90
64654;DHT22;51065;48.884;12.598;2023-07-20T04:17:52;17.70;99.90
64654;DHT22;51065;48.884;12.598;2023-07-20T04:20:17;17.80;99.90
64654;DHT22;51065;48.884;12.598;2023-07-20T04:22:43;17.80;99.90
64654;DHT22;51065;48.884;12.598;2023-07-20T04:25:09;17.80;99.90
64654;DHT22;51065;48.884;12.598;2023-07-20T04:27:35;17.80;99.90
64654;DHT22;51065;48.884;12.598;2023-07-20T04:30:01;17.70;99.90
64654;DHT22;51065;48.884;12.598;2023-07-20T04:32:29;17.80;99.90
64654;DHT22;51065;48.884;12.598;2023-07-20T04:34:56;17.80;99.90
64654;DHT22;51065;48.884;12.598;2023-07-20T04:37:21;17.80;99.90
64654;DHT22;51065;48.884;12.598;2023-07-20T04:39:47;17.80;99.90
64654;DHT22;51065;48.884;12.598;2023-07-20T04:42:12;17.90;99.90
64654;DHT22;51065;48.884;12.598;2023-07-20T04:44:38;17.90;99.90
64654;DHT22;51065;48.884;12.598;2023-07-20T04:47:03;17.90;99.90
64654;DHT22;51065;48.884;12.598;2023-07-20T04:49:29;18.00;99.90
64654;DHT22;51065;48.884;12.598;2023-07-20T04:51:55;18.10;99.90
64654;DHT22;51065;48.884;12.598;2023-07-20T04:54:20;18.10;99.90
64654;DHT22;51065;48.884;12.598;2023-07-20T04:56:46;18.20;99.90
64654;DHT22;51065;48.884;12.598;2023-07-20T04:59:12;18.30;99.90
64654;DHT22;51065;48.884;12.598;2023-07-20T05:01:37;18.30;99.90
64654;DHT22;51065;48.884;12.598;2023-07-20T05:04:03;18.30;99.90
64654;DHT22;51065;48.884;12.598;2023-07-20T05:06:29;18.30;99.90
64654;DHT22;51065;48.884;12.598;2023-07-20T05:08:54;18.40;99.90
64654;DHT22;51065;48.884;12.598;2023-07-20T05:11:20;18.40;99.90
64654;DHT22;51065;48.884;12.598;2023-07-20T05:13:45;18.40;99.90
64654;DHT22;51065;48.884;12.598;2023-07-20T05:16:11;18.40;99.90
64654;DHT22;51065;48.884;12.598;2023-07-20T05:18:36;18.50;99.90
64654;DHT22;51065;48.884;12.598;2023-07-20T05:21:02;18.50;99.90
64654;DHT22;51065;48.884;12.598;2023-07-20T05:23:28;18.60;99.90
64654;DHT22;51065;48.884;12.598;2023-07-20T05:25:54;18.70;99.90
64654;DHT22;51065;48.884;12.598;2023-07-20T05:28:20;18.70;99.90
64654;DHT22;51065;48.884;12.598;2023-07-20T05:30:46;18.80;99.90
64654;DHT22;51065;48.884;12.598;2023-07-20T05:33:11;18.90;99.90
64654;DHT22;51065;48.884;12.598;2023-07-20T05:35:37;19.10;99.90
64654;DHT22;51065;48.884;12.598;2023-07-20T05:38:03;19.20;99.90
64654;DHT22;51065;48.884;12.598;2023-07-20T05:40:30;19.20;99.90
64654;DHT22;51065;48.884;12.598;2023-07-20T05:42:55;19.20;99.90
64654;DHT22;51065;48.884;12.598;2023-07-20T05:45:22;19.40;99.90
64654;DHT22;51065;48.884;12.598;2023-07-20T05:47:48;19.30;99.90
64654;DHT22;51065;48.884;12.598;2023-07-20T05:50:14;19.50;99.90
64654;DHT22;51065;48.884;12.598;2023-07-20T05:52:40;19.70;99.90
64654;DHT22;51065;48.884;12.598;2023-07-20T05:55:06;19.70;99.90
64654;DHT22;51065;48.884;12.598;2023-07-20T05:57:33;19.80;99.90
64654;DHT22;51065;48.884;12.598;2023-07-20T05:59:58;19.90;99.90
64654;DHT22;51065;48.884;12.598;2023-07-20T06:02:25;20.00;99.90
64654;DHT22;51065;48.884;12.598;2023-07-20T06:04:50;20.00;99.90
64654;DHT22;51065;48.884;12.598;2023-07-20T06:07:16;20.10;99.90
64654;DHT22;51065;48.884;12.598;2023-07-20T06:09:42;20.30;99.90
64654;DHT22;51065;48.884;12.598;2023-07-20T06:12:08;20.40;99.90
64654;DHT22;51065;48.884;12.598;2023-07-20T06:14:34;20.30;99.90
64654;DHT22;51065;48.884;12.598;2023-07-20T06:17:00;20.30;99.90
64654;DHT22;51065;48.884;12.598;2023-07-20T06:19:26;20.40;99.90
64654;DHT22;51065;48.884;12.598;2023-07-20T06:21:52;20.60;99.90
64654;DHT22;51065;48.884;12.598;2023-07-20T06:24:17;20.60;99.90
64654;DHT22;51065;48.884;12.598;2023-07-20T06:26:43;20.60;99.90
64654;DHT22;51065;48.884;12.598;2023-07-20T06:29:09;20.70;99.90
64654;DHT22;51065;48.884;12.598;2023-07-20T06:31:35;21.00;99.90
64654;DHT22;51065;48.884;12.598;2023-07-20T06:34:02;20.90;99.90
64654;DHT22;51065;48.884;12.598;2023-07-20T06:36:28;21.00;99.90
64654;DHT22;51065;48.884;12.598;2023-07-20T06:38:54;20.90;99.90
64654;DHT22;51065;48.884;12.598;2023-07-20T06:41:19;20.90;99.90
64654;DHT22;51065;48.884;12.598;2023-07-20T06:43:45;20.70;99.90
64654;DHT22;51065;48.884;12.598;2023-07-20T06:46:11;20.80;99.90
64654;DHT22;51065;48.884;12.598;2023-07-20T06:48:36;21.00;99.90
64654;DHT22;51065;48.884;12.598;2023-07-20T06:51:02;21.30;99.90
64654;DHT22;51065;48.884;12.598;2023-07-20T06:53:28;21.30;99.90
64654;DHT22;51065;48.884;12.598;2023-07-20T06:55:54;21.30;99.90
64654;DHT22;51065;48.884;12.598;2023-07-20T06:58:23;21.60;99.70
64654;DHT22;51065;48.884;12.598;2023-07-20T07:00:48;21.70;99.90
64654;DHT22;51065;48.884;12.598;2023-07-20T07:03:14;22.00;99.10
64654;DHT22;51065;48.884;12.598;2023-07-20T07:05:39;22.30;95.90
64654;DHT22;51065;48.884;12.598;2023-07-20T07:08:05;22.00;97.10
64654;DHT22;51065;48.884;12.598;2023-07-20T07:10:31;21.80;99.10
64654;DHT22;51065;48.884;12.598;2023-07-20T07:12:56;21.90;99.40
64654;DHT22;51065;48.884;12.598;2023-07-20T07:15:22;22.70;95.30
64654;DHT22;51065;48.884;12.598;2023-07-20T07:17:47;23.20;93.40
64654;DHT22;51065;48.884;12.598;2023-07-20T07:20:13;23.90;83.80
64654;DHT22;51065;48.884;12.598;2023-07-20T07:22:39;23.90;81.80
64654;DHT22;51065;48.884;12.598;2023-07-20T07:25:05;23.90;86.00
64654;DHT22;51065;48.884;12.598;2023-07-20T07:27:30;24.90;78.60
64654;DHT22;51065;48.884;12.598;2023-07-20T07:29:56;25.40;69.40
64654;DHT22;51065;48.884;12.598;2023-07-20T07:32:22;25.40;67.00
64654;DHT22;51065;48.884;12.598;2023-07-20T07:34:47;25.50;67.00
64654;DHT22;51065;48.884;12.598;2023-07-20T07:37:14;25.00;67.90
64654;DHT22;51065;48.884;12.598;2023-07-20T07:39:39;25.10;70.90
64654;DHT22;51065;48.884;12.598;2023-07-20T07:42:05;25.40;69.90
64654;DHT22;51065;48.884;12.598;2023-07-20T07:44:31;25.50;69.50
64654;DHT22;51065;48.884;12.598;2023-07-20T07:46:57;25.20;69.00
64654;DHT22;51065;48.884;12.598;2023-07-20T07:49:23;25.70;70.30
64654;DHT22;51065;48.884;12.598;2023-07-20T07:51:48;25.70;65.10
64654;DHT22;51065;48.884;12.598;2023-07-20T07:54:14;24.40;74.10
64654;DHT22;51065;48.884;12.598;2023-07-20T07:56:40;24.50;76.90
64654;DHT22;51065;48.884;12.598;2023-07-20T07:59:06;24.00;79.60
64654;DHT22;51065;48.884;12.598;2023-07-20T08:01:32;24.40;81.60
64654;DHT22;51065;48.884;12.598;2023-07-20T08:03:58;25.00;66.20
64654;DHT22;51065;48.884;12.598;2023-07-20T08:06:23;24.50;61.50
64654;DHT22;51065;48.884;12.598;2023-07-20T08:08:52;24.10;69.00
64654;DHT22;51065;48.884;12.598;2023-07-20T08:11:17;24.70;67.80
64654;DHT22;51065;48.884;12.598;2023-07-20T08:13:43;25.30;59.70
64654;DHT22;51065;48.884;12.598;2023-07-20T08:16:09;25.70;59.80
64654;DHT22;51065;48.884;12.598;2023-07-20T08:18:34;26.10;56.60
64654;DHT22;51065;48.884;12.598;2023-07-20T08:21:00;26.00;58.10
64654;DHT22;51065;48.884;12.598;2023-07-20T08:23:25;26.90;53.60
64654;DHT22;51065;48.884;12.598;2023-07-20T08:25:53;27.80;50.70
64654;DHT22;51065;48.884;12.598;2023-07-20T08:28:18;27.30;50.20
64654;DHT22;51065;48.884;12.598;2023-07-20T08:30:46;26.50;51.10
64654;DHT22;51065;48.884;12.598;2023-07-20T08:33:14;25.80;54.60
64654;DHT22;51065;48.884;12.598;2023-07-20T08:35:40;25.00;58.50
64654;DHT22;51065;48.884;12.598;2023-07-20T08:38:06;24.30;60.40
64654;DHT22;51065;48.884;12.598;2023-07-20T08:40:33;24.20;60.10
64654;DHT22;51065;48.884;12.598;2023-07-20T08:43:00;25.20;58.60
64654;DHT22;51065;48.884;12.598;2023-07-20T08:45:27;24.80;58.00
64654;DHT22;51065;48.884;12.598;2023-07-20T08:47:56;25.60;55.70
64654;DHT22;51065;48.884;12.598;2023-07-20T08:50:21;25.90;54.40
64654;DHT22;51065;48.884;12.598;2023-07-20T08:52:48;26.40;53.90
64654;DHT22;51065;48.884;12.598;2023-07-20T08:55:15;26.40;53.50
64654;DHT22;51065;48.884;12.598;2023-07-20T08:57:42;27.10;49.00
64654;DHT22;51065;48.884;12.598;2023-07-20T09:00:11;27.50;47.40
64654;DHT22;51065;48.884;12.598;2023-07-20T09:02:39;27.10;48.80
64654;DHT22;51065;48.884;12.598;2023-07-20T09:05:08;27.70;48.70
64654;DHT22;51065;48.884;12.598;2023-07-20T09:07:35;28.10;47.30
64654;DHT22;51065;48.884;12.598;2023-07-20T09:10:01;29.10;44.70
64654;DHT22;51065;48.884;12.598;2023-07-20T09:12:32;28.60;44.60
64654;DHT22;51065;48.884;12.598;2023-07-20T09:14:58;28.70;44.10
64654;DHT22;51065;48.884;12.598;2023-07-20T09:17:25;28.40;45.20
64654;DHT22;51065;48.884;12.598;2023-07-20T09:19:51;27.40;46.00
64654;DHT22;51065;48.884;12.598;2023-07-20T09:22:16;27.60;44.30
64654;DHT22;51065;48.884;12.598;2023-07-20T09:24:43;28.20;43.30
64654;DHT22;51065;48.884;12.598;2023-07-20T09:27:09;28.30;43.70
64654;DHT22;51065;48.884;12.598;2023-07-20T09:29:50;27.80;43.70
64654;DHT22;51065;48.884;12.598;2023-07-20T09:32:20;27.10;46.40
64654;DHT22;51065;48.884;12.598;2023-07-20T09:34:46;26.70;45.50
64654;DHT22;51065;48.884;12.598;2023-07-20T09:37:12;25.90;46.40
64654;DHT22;51065;48.884;12.598;2023-07-20T09:39:45;25.70;47.10
64654;DHT22;51065;48.884;12.598;2023-07-20T09:42:12;26.70;46.00
64654;DHT22;51065;48.884;12.598;2023-07-20T09:44:38;26.40;46.50
64654;DHT22;51065;48.884;12.598;2023-07-20T09:47:05;25.60;50.10
64654;DHT22;51065;48.884;12.598;2023-07-20T09:49:31;24.50;52.80
64654;DHT22;51065;48.884;12.598;2023-07-20T09:51:58;24.10;55.20
64654;DHT22;51065;48.884;12.598;2023-07-20T09:54:26;25.00;53.90
64654;DHT22;51065;48.884;12.598;2023-07-20T09:56:54;26.20;51.10
64654;DHT22;51065;48.884;12.598;2023-07-20T09:59:21;27.10;46.30
64654;DHT22;51065;48.884;12.598;2023-07-20T10:01:47;27.80;45.80
64654;DHT22;51065;48.884;12.598;2023-07-20T10:04:16;28.40;44.70
64654;DHT22;51065;48.884;12.598;2023-07-20T10:06:47;28.50;41.40
64654;DHT22;51065;48.884;12.598;2023-07-20T10:09:15;28.80;41.40
64654;DHT22;51065;48.884;12.598;2023-07-20T10:11:45;28.80;41.60
64654;DHT22;51065;48.884;12.598;2023-07-20T10:14:18;28.70;41.60
64654;DHT22;51065;48.884;12.598;2023-07-20T10:16:51;29.00;39.50
64654;DHT22;51065;48.884;12.598;2023-07-20T10:19:23;28.20;41.50
64654;DHT22;51065;48.884;12.598;2023-07-20T10:22:06;28.30;41.60
64654;DHT22;51065;48.884;12.598;2023-07-20T10:24:34;28.50;40.50
64654;DHT22;51065;48.884;12.598;2023-07-20T10:27:00;27.80;41.20
64654;DHT22;51065;48.884;12.598;2023-07-20T10:29:26;27.80;41.00
64654;DHT22;51065;48.884;12.598;2023-07-20T10:31:54;28.30;41.30
64654;DHT22;51065;48.884;12.598;2023-07-20T10:34:21;29.00;38.30
64654;DHT22;51065;48.884;12.598;2023-07-20T10:36:46;28.80;37.70
64654;DHT22;51065;48.884;12.598;2023-07-20T10:39:24;29.40;36.50
64654;DHT22;51065;48.884;12.598;2023-07-20T10:41:50;29.40;35.20
64654;DHT22;51065;48.884;12.598;2023-07-20T10:44:20;28.80;37.10
64654;DHT22;51065;48.884;12.598;2023-07-20T10:46:45;27.30;39.10
64654;DHT22;51065;48.884;12.598;2023-07-20T10:49:13;26.20;41.90
64654;DHT22;51065;48.884;12.598;2023-07-20T10:51:46;27.00;42.00
64654;DHT22;51065;48.884;12.598;2023-07-20T10:56:42;27.90;38.90
64654;DHT22;51065;48.884;12.598;2023-07-20T11:01:54;28.30;37.30
64654;DHT22;51065;48.884;12.598;2023-07-20T11:07:03;28.00;38.20
64654;DHT22;51065;48.884;12.598;2023-07-20T11:09:34;28.60;36.30
64654;DHT22;51065;48.884;12.598;2023-07-20T11:12:13;28.70;36.80
64654;DHT22;51065;48.884;12.598;2023-07-20T11:14:42;29.30;36.00
64654;DHT22;51065;48.884;12.598;2023-07-20T11:17:15;29.00;36.00
64654;DHT22;51065;48.884;12.598;2023-07-20T11:19:41;30.10;34.60
64654;DHT22;51065;48.884;12.598;2023-07-20T11:22:07;30.10;33.90
64654;DHT22;51065;48.884;12.598;2023-07-20T11:24:34;29.30;35.00
64654;DHT22;51065;48.884;12.598;2023-07-20T11:27:00;27.90;36.60
64654;DHT22;51065;48.884;12.598;2023-07-20T11:29:28;26.80;38.90
64654;DHT22;51065;48.884;12.598;2023-07-20T11:31:54;26.40;41.30
64654;DHT22;51065;48.884;12.598;2023-07-20T11:34:20;26.70;40.60
64654;DHT22;51065;48.884;12.598;2023-07-20T11:36:49;27.70;39.80
64654;DHT22;51065;48.884;12.598;2023-07-20T11:39:16;28.50;37.40
64654;DHT22;51065;48.884;12.598;2023-07-20T11:41:50;29.70;37.20
64654;DHT22;51065;48.884;12.598;2023-07-20T11:44:16;29.10;36.20
64654;DHT22;51065;48.884;12.598;2023-07-20T11:46:43;28.70;36.80
64654;DHT22;51065;48.884;12.598;2023-07-20T11:49:10;29.30;37.90
64654;DHT22;51065;48.884;12.598;2023-07-20T11:51:36;30.80;36.00
64654;DHT22;51065;48.884;12.598;2023-07-20T11:54:04;30.70;35.10
64654;DHT22;51065;48.884;12.598;2023-07-20T11:56:30;31.70;33.80
64654;DHT22;51065;48.884;12.598;2023-07-20T11:58:57;30.90;34.10
64654;DHT22;51065;48.884;12.598;2023-07-20T12:01:25;31.30;33.70
64654;DHT22;51065;48.884;12.598;2023-07-20T12:03:56;31.00;34.30
64654;DHT22;51065;48.884;12.598;2023-07-20T12:06:27;31.90;34.60
64654;DHT22;51065;48.884;12.598;2023-07-20T12:08:58;31.90;33.20
64654;DHT22;51065;48.884;12.598;2023-07-20T12:11:37;31.20;32.70
64654;DHT22;51065;48.884;12.598;2023-07-20T12:14:06;31.00;33.20
64654;DHT22;51065;48.884;12.598;2023-07-20T12:16:31;30.60;34.50
64654;DHT22;51065;48.884;12.598;2023-07-20T12:19:08;30.60;33.30
64654;DHT22;51065;48.884;12.598;2023-07-20T12:21:35;30.40;34.00
64654;DHT22;51065;48.884;12.598;2023-07-20T12:24:05;29.40;33.70
64654;DHT22;51065;48.884;12.598;2023-07-20T12:26:32;29.20;34.20
64654;DHT22;51065;48.884;12.598;2023-07-20T12:28:59;28.50;34.60
64654;DHT22;51065;48.884;12.598;2023-07-20T12:31:25;28.60;35.40
64654;DHT22;51065;48.884;12.598;2023-07-20T12:33:52;28.90;34.80
64654;DHT22;51065;48.884;12.598;2023-07-20T12:36:18;29.20;36.30
64654;DHT22;51065;48.884;12.598;2023-07-20T12:38:45;29.70;37.10
64654;DHT22;51065;48.884;12.598;2023-07-20T12:41:11;30.00;33.00
64654;DHT22;51065;48.884;12.598;2023-07-20T12:43:38;30.10;32.40
64654;DHT22;51065;48.884;12.598;2023-07-20T12:46:05;29.80;32.80
64654;DHT22;51065;48.884;12.598;2023-07-20T12:48:31;29.80;34.60
64654;DHT22;51065;48.884;12.598;2023-07-20T12:50:57;29.40;34.90
64654;DHT22;51065;48.884;12.598;2023-07-20T12:53:22;29.90;34.10
64654;DHT22;51065;48.884;12.598;2023-07-20T12:55:48;30.20;34.40
64654;DHT22;51065;48.884;12.598;2023-07-20T12:58:14;29.70;33.60
64654;DHT22;51065;48.884;12.598;2023-07-20T13:00:39;29.50;34.10
64654;DHT22;51065;48.884;12.598;2023-07-20T13:03:06;29.50;33.70
64654;DHT22;51065;48.884;12.598;2023-07-20T13:05:32;29.70;33.70
64654;DHT22;51065;48.884;12.598;2023-07-20T13:07:58;29.00;33.60
64654;DHT22;51065;48.884;12.598;2023-07-20T13:10:24;28.60;33.60
64654;DHT22;51065;48.884;12.598;2023-07-20T13:12:50;28.20;34.10
64654;DHT22;51065;48.884;12.598;2023-07-20T13:15:18;27.80;36.10
64654;DHT22;51065;48.884;12.598;2023-07-20T13:17:44;27.70;36.00
64654;DHT22;51065;48.884;12.598;2023-07-20T13:20:11;28.30;35.30
64654;DHT22;51065;48.884;12.598;2023-07-20T13:22:37;28.30;35.10
64654;DHT22;51065;48.884;12.598;2023-07-20T13:25:04;28.10;34.30
64654;DHT22;51065;48.884;12.598;2023-07-20T13:27:29;27.60;35.70
64654;DHT22;51065;48.884;12.598;2023-07-20T13:29:57;28.10;36.10
64654;DHT22;51065;48.884;12.598;2023-07-20T13:32:23;28.60;34.30
64654;DHT22;51065;48.884;12.598;2023-07-20T13:34:48;28.90;34.40
64654;DHT22;51065;48.884;12.598;2023-07-20T13:37:14;29.40;33.70
64654;DHT22;51065;48.884;12.598;2023-07-20T13:39:41;29.60;33.50
64654;DHT22;51065;48.884;12.598;2023-07-20T13:42:07;29.10;32.80
64654;DHT22;51065;48.884;12.598;2023-07-20T13:44:35;29.30;33.90
64654;DHT22;51065;48.884;12.598;2023-07-20T13:47:01;29.60;33.70
64654;DHT22;51065;48.884;12.598;2023-07-20T13:49:27;29.20;32.70
64654;DHT22;51065;48.884;12.598;2023-07-20T13:51:53;28.50;34.70
64654;DHT22;51065;48.884;12.598;2023-07-20T13:54:18;27.90;34.00
64654;DHT22;51065;48.884;12.598;2023-07-20T13:56:44;27.40;35.20
64654;DHT22;51065;48.884;12.598;2023-07-20T13:59:10;27.30;34.90
64654;DHT22;51065;48.884;12.598;2023-07-20T14:01:35;27.40;36.70
64654;DHT22;51065;48.884;12.598;2023-07-20T14:04:02;28.00;35.50
64654;DHT22;51065;48.884;12.598;2023-07-20T14:06:32;28.50;34.60
64654;DHT22;51065;48.884;12.598;2023-07-20T14:08:59;29.00;33.50
64654;DHT22;51065;48.884;12.598;2023-07-20T14:11:24;29.10;34.50
64654;DHT22;51065;48.884;12.598;2023-07-20T14:13:51;29.20;33.30
64654;DHT22;51065;48.884;12.598;2023-07-20T14:16:18;28.50;33.80
64654;DHT22;51065;48.884;12.598;2023-07-20T14:18:44;28.20;34.70
64654;DHT22;51065;48.884;12.598;2023-07-20T14:21:12;28.00;34.30
64654;DHT22;51065;48.884;12.598;2023-07-20T14:23:38;27.70;34.50
64654;DHT22;51065;48.884;12.598;2023-07-20T14:26:04;28.10;35.80
64654;DHT22;51065;48.884;12.598;2023-07-20T14:28:38;28.50;34.90
64654;DHT22;51065;48.884;12.598;2023-07-20T14:31:04;28.70;34.90
64654;DHT22;51065;48.884;12.598;2023-07-20T14:33:30;29.00;33.90
64654;DHT22;51065;48.884;12.598;2023-07-20T14:35:56;28.80;33.90
64654;DHT22;51065;48.884;12.598;2023-07-20T14:38:22;29.20;33.10
64654;DHT22;51065;48.884;12.598;2023-07-20T14:40:47;29.80;32.30
64654;DHT22;51065;48.884;12.598;2023-07-20T14:43:13;29.70;30.90
64654;DHT22;51065;48.884;12.598;2023-07-20T14:45:40;29.50;31.50
64654;DHT22;51065;48.884;12.598;2023-07-20T14:48:06;28.80;30.80
64654;DHT22;51065;48.884;12.598;2023-07-20T14:50:33;28.50;32.30
64654;DHT22;51065;48.884;12.598;2023-07-20T14:52:58;28.70;34.00
64654;DHT22;51065;48.884;12.598;2023-07-20T14:55:25;28.50;33.50
64654;DHT22;51065;48.884;12.598;2023-07-20T14:57:50;28.70;36.20
64654;DHT22;51065;48.884;12.598;2023-07-20T15:00:16;29.00;33.90
64654;DHT22;51065;48.884;12.598;2023-07-20T15:02:42;29.10;33.30
64654;DHT22;51065;48.884;12.598;2023-07-20T15:05:10;29.60;33.50
64654;DHT22;51065;48.884;12.598;2023-07-20T15:07:36;29.10;33.30
64654;DHT22;51065;48.884;12.598;2023-07-20T15:10:05;28.90;33.20
64654;DHT22;51065;48.884;12.598;2023-07-20T15:12:31;29.20;33.40
64654;DHT22;51065;48.884;12.598;2023-07-20T15:15:04;29.10;33.10
64654;DHT22;51065;48.884;12.598;2023-07-20T15:17:33;28.60;34.30
64654;DHT22;51065;48.884;12.598;2023-07-20T15:19:59;27.90;33.30
64654;DHT22;51065;48.884;12.598;2023-07-20T15:22:25;27.80;34.00
64654;DHT22;51065;48.884;12.598;2023-07-20T15:24:51;27.50;34.00
64654;DHT22;51065;48.884;12.598;2023-07-20T15:27:17;27.50;34.50
64654;DHT22;51065;48.884;12.598;2023-07-20T15:29:42;27.50;34.70